Point Of Rocks, WY (82942)

5:40 AM MDT on September 16, 2014 (GMT -0600)
Rock Springs-Sweetwater | Change Station
CLOSE
Current Station
Airport
Location: Rock Springs,
Elevation: 6759 ft
Nearby Weather Stations

Elev 6759 ft 41.59 °N, 109.05 °W | Updated 46 minutes ago

Clear
Clear
55 °F
Feels Like 55 °F
N
0
Wind Variable Wind from North

Today
High -- | Low -- °F
--% Chance of Precip.
Yesterday
High -- | Low -- °F
Precip. -- in
6:56 AM 7:22 PM
Last Quarter, 46% visible
Pressure 30.06 in
Visibility 10.0 miles
Clouds Clear
Dew Point 33 °F
Humidity 43%
Rainfall 0.00 in
Snow Depth 0 in , 1 in , 0 in
UV 0 out of 12
Pollen 6.10 out of 12
Air Quality Not available.
Flu Activity Not available.
METAR KRKS 161054Z AUTO 00000KT 10SM CLR 13/01 A3030 RMK AO2 SLP178 T01280006

More Conditions Fewer Conditions

Pressure 30.06 in
Visibility 10.0 miles
Clouds Clear
Dew Point 33 °F
Humidity 43%
Rainfall 0.00 in
Snow Depth 0 in , 1 in , 0 in
UV 0 out of 12
Pollen 6.10 out of 12
Air Quality Not available.
Flu Activity Not available.
METAR KRKS 161054Z AUTO 00000KT 10SM CLR 13/01 A3030 RMK AO2 SLP178 T01280006

More Conditions Fewer Conditions

10-Day Weather Forecast

Almanac

Astronomy

Sep. 16, 2014 Rise Set
Actual Time 6:56 AM MDT 7:22 PM MDT
Civil Twilight 6:28 AM MDT 7:50 PM MDT
Nautical Twilight 5:55 AM MDT 8:23 PM MDT
Astronomical Twilight 5:22 AM MDT 8:56 PM MDT
Moon 12:05 AM MDT 2:52 PM MDT
Length of Visible Light 13h 21m
Length of Day
12h 26m
Tomorrow will be 2m 46s shorter.
Last Quarter, 46% of the Moon is Illuminated
Today
Last Quarter
Sep 24
New
Oct 1
First Quarter
Oct 8
Full
Oct 15
Last Quarter

Today's Extremes

State Highs State Lows

Community

WunderPhotos

Upload Photos

1,753,724 photos uploaded!

WunderBlogs® & News

By Dr. Jeff Masters
Director of Meteorology, Weather Underground
By Kari Strenfel
Meteorologist, Weather Underground
By Christopher C. Burt
Weather Historian, Weather Underground
September 16, 2014
September 16, 2014
September 16, 2014

Nearby

Snow Depth

Station Depth Elevation
Loomis Park 0 in 8240 ft
Cinnabar Park 1 in 9690 ft
Grassy Lake 0 in 7265 ft
New Fork Lake 0 in 8340 ft
Kendall R.S. 1 in 7740 ft

Earthquake Activity

City Distance Mag. Time & Date
No recent earthquake activity has been reported nearby.
Minimum magnitude displayed is 2.5.

Coastal Water Temperatures

Place Temperature
No Stations Reporting

Nearby Weather Stations